EGNS - Ronaldsway Airport
Distance from station: E 5mi, 14km
Updated: 03/01/2024 7:50pm
Light rain, Mostly cloudy
Light rain, Mostly cloudy
 Wind from N
Wind: N 12 mph , 19 km/h
Temperature: 39°F , 4°C
Wind Chill: 32°F , 0°C
Dew Point: 36°F , 2°C
Humidity: 87%
Barometer: 29.23 inHg , 990 hPa
Summary: Light Rain
Clouds: Mostly Cloudy
Visibility: 6 miles , 10 km
Cloud details: Partly Cloudy 1000 ft
Mostly Cloudy 3000 ft
2024/03/02 03:50 EGNS 020350Z 01010KT 9999 -RA SCT010 BKN030 04/02 Q0990